Time;durP1;ratioP1;P1;durP2;ratioP2;P2;SDS_P1;SDS_P2;PMS_P1;PMS_P2;Temp;Humidity;BMP_temperature;BMP_pressure;BME280_temperature;BME280_humidity;BME280_pressure;Samples;Min_cycle;Max_cycle;Signal;HPM_P1;HPM_P2
2023/01/19 00:02:04;;;;;;;20.60;9.90;;;-1.50;99.90;;;;;;5217560;28;20829;-48
2023/01/19 00:04:34;;;;;;;15.97;10.20;;;-1.50;99.90;;;;;;5236276;28;20418;-47
2023/01/19 00:07:06;;;;;;;17.20;10.20;;;-1.40;99.90;;;;;;5225217;28;20171;-48
2023/01/19 00:09:45;;;;;;;16.30;9.43;;;-1.50;99.90;;;;;;5225232;28;20227;-49
2023/01/19 00:12:15;;;;;;;11.20;8.60;;;-1.50;99.90;;;;;;5221404;28;20437;-47
2023/01/19 00:14:46;;;;;;;21.80;9.90;;;-1.60;99.90;;;;;;5226707;28;20774;-48
2023/01/19 00:17:16;;;;;;;28.10;9.03;;;-1.60;99.90;;;;;;5223492;28;20179;-49
2023/01/19 00:19:47;;;;;;;16.53;8.80;;;-1.50;99.90;;;;;;5223533;28;20268;-49
2023/01/19 00:22:18;;;;;;;14.73;9.27;;;-1.60;99.90;;;;;;5216340;28;20278;-48
2023/01/19 00:24:49;;;;;;;20.93;7.97;;;-1.60;99.90;;;;;;5220756;28;20265;-49
2023/01/19 00:27:19;;;;;;;17.30;9.43;;;-1.60;99.90;;;;;;5217467;28;20738;-47
2023/01/19 00:29:50;;;;;;;15.07;9.33;;;-1.40;99.90;;;;;;5215214;28;20553;-47
2023/01/19 00:32:21;;;;;;;16.67;10.00;;;-1.60;99.90;;;;;;5215622;28;20187;-47
2023/01/19 00:34:51;;;;;;;13.13;8.53;;;-1.60;99.90;;;;;;5222907;28;20183;-49
2023/01/19 00:37:22;;;;;;;13.53;8.50;;;-1.50;99.90;;;;;;5222809;28;20179;-48
2023/01/19 00:39:53;;;;;;;15.60;7.80;;;-1.40;99.90;;;;;;5225526;28;20679;-48
2023/01/19 00:45:17;;;;;;;11.87;8.40;;;-1.10;99.90;;;;;;5219157;28;20209;-47
2023/01/19 00:47:53;;;;;;;7.97;6.40;;;-1.30;99.90;;;;;;5222117;28;20800;-48
2023/01/19 00:50:26;;;;;;;10.80;7.27;;;-1.40;99.90;;;;;;5221177;28;20449;-47
2023/01/19 00:52:59;;;;;;;7.27;6.33;;;-1.50;99.90;;;;;;5227661;28;20429;-46
2023/01/19 00:55:32;;;;;;;9.80;7.27;;;-1.50;99.90;;;;;;5228217;28;20460;-46
2023/01/19 00:58:03;;;;;;;9.20;5.73;;;-1.70;99.90;;;;;;5224064;28;20450;-47
2023/01/19 01:00:33;;;;;;;10.90;7.00;;;-1.70;99.90;;;;;;5225216;28;20931;-47
2023/01/19 01:03:04;;;;;;;9.60;6.90;;;-1.60;99.90;;;;;;5218968;28;20273;-47
2023/01/19 01:05:34;;;;;;;12.50;7.07;;;-1.60;99.90;;;;;;5226911;28;20325;-47
2023/01/19 01:08:05;;;;;;;10.73;7.23;;;-1.60;99.90;;;;;;5224590;28;20271;-48
2023/01/19 01:10:36;;;;;;;13.70;7.00;;;-1.50;99.90;;;;;;5219921;28;20207;-48
2023/01/19 01:13:07;;;;;;;17.77;8.67;;;-1.40;99.90;;;;;;5222692;28;20330;-46
2023/01/19 01:15:38;;;;;;;12.27;7.57;;;-1.40;99.90;;;;;;5220515;28;20652;-46
2023/01/19 01:18:09;;;;;;;16.30;8.00;;;-1.40;99.90;;;;;;5225984;28;20451;-49
2023/01/19 01:20:39;;;;;;;11.97;8.77;;;-1.00;99.90;;;;;;5219347;28;20275;-46
2023/01/19 01:23:10;;;;;;;18.30;8.67;;;-1.00;99.90;;;;;;5227299;28;20234;-48
2023/01/19 01:25:41;;;;;;;14.67;7.97;;;-0.90;99.90;;;;;;5220091;28;20178;-46
2023/01/19 01:28:12;;;;;;;17.63;9.10;;;-1.00;99.90;;;;;;5227114;28;20280;-46
2023/01/19 01:30:42;;;;;;;16.13;8.30;;;-1.30;99.90;;;;;;5223615;28;20465;-46
2023/01/19 01:33:13;;;;;;;15.40;8.17;;;-1.20;99.90;;;;;;5220539;28;20193;-47
2023/01/19 01:35:44;;;;;;;20.27;8.50;;;-1.40;99.90;;;;;;5225003;28;20176;-47
2023/01/19 01:38:15;;;;;;;11.20;7.97;;;-1.40;99.90;;;;;;5229459;28;20198;-50
2023/01/19 01:40:45;;;;;;;15.57;7.97;;;-1.60;99.90;;;;;;5219269;28;20476;-47
2023/01/19 01:43:19;;;;;;;13.20;8.70;;;-1.60;99.90;;;;;;5229313;28;20271;-47
2023/01/19 01:45:50;;;;;;;15.23;7.90;;;-1.80;99.90;;;;;;5225604;28;20186;-48
2023/01/19 01:48:25;;;;;;;12.60;8.90;;;-1.80;99.90;;;;;;5225841;28;20448;-46
2023/01/19 01:54:08;;;;;;;15.10;8.50;;;-1.50;99.90;;;;;;5226495;28;21022;-50
2023/01/19 01:56:47;;;;;;;14.80;9.07;;;-1.60;99.90;;;;;;5222303;28;20413;-46
2023/01/19 01:59:33;;;;;;;18.00;9.47;;;-1.40;99.90;;;;;;5243281;28;20545;-46
2023/01/19 02:05:11;;;;;;;18.10;10.47;;;-1.40;99.90;;;;;;5225703;28;20466;-46
2023/01/19 02:13:43;;;;;;;17.70;10.43;;;-1.50;99.90;;;;;;5224610;28;20502;-47
2023/01/19 02:16:15;;;;;;;16.60;9.30;;;-1.60;99.90;;;;;;5223194;28;20487;-48
2023/01/19 02:18:46;;;;;;;14.97;9.10;;;-1.80;99.90;;;;;;5227778;28;20448;-46
2023/01/19 02:21:45;;;;;;;16.07;9.20;;;-1.90;99.90;;;;;;5224220;28;20429;-49
2023/01/19 02:24:16;;;;;;;18.97;9.20;;;-1.80;99.90;;;;;;5209342;28;20197;-46
2023/01/19 02:26:48;;;;;;;17.40;10.40;;;-1.60;99.90;;;;;;5218925;28;20438;-48
2023/01/19 02:29:21;;;;;;;16.83;9.63;;;-1.90;99.90;;;;;;5227600;28;20260;-46
2023/01/19 02:31:54;;;;;;;20.47;9.90;;;-1.80;99.90;;;;;;5221419;28;20450;-46
2023/01/19 02:34:25;;;;;;;21.87;9.77;;;-1.70;99.90;;;;;;5227907;28;20457;-46
2023/01/19 02:36:58;;;;;;;17.93;9.73;;;-1.70;99.90;;;;;;5226078;28;20426;-46
2023/01/19 02:39:44;;;;;;;20.13;10.53;;;-1.80;99.90;;;;;;5237626;28;20392;-46
2023/01/19 02:42:20;;;;;;;22.70;10.80;;;-1.80;99.90;;;;;;5225360;28;22289;-47
2023/01/19 02:44:53;;;;;;;14.47;8.87;;;-1.80;99.90;;;;;;5230255;28;20430;-48
2023/01/19 02:47:24;;;;;;;14.87;9.17;;;-1.90;99.90;;;;;;5226024;28;20471;-47
2023/01/19 02:49:59;;;;;;;15.67;9.50;;;-1.60;99.90;;;;;;5203184;28;20527;-46
2023/01/19 02:52:30;;;;;;;17.43;10.30;;;-1.60;99.90;;;;;;5218550;28;20186;-46
2023/01/19 02:55:15;;;;;;;38.33;10.60;;;-1.70;99.90;;;;;;5226235;28;20436;-46
2023/01/19 02:58:13;;;;;;;16.43;9.07;;;-2.00;99.90;;;;;;5232009;28;20179;-47
2023/01/19 03:01:26;;;;;;;15.60;9.47;;;-2.10;99.90;;;;;;5225934;28;20429;-47
2023/01/19 03:04:14;;;;;;;17.43;9.90;;;-2.10;99.90;;;;;;5226189;28;20429;-45
2023/01/19 03:06:59;;;;;;;25.73;10.70;;;-2.20;99.90;;;;;;5219764;28;20440;-46
2023/01/19 03:09:57;;;;;;;25.97;9.67;;;-2.30;99.90;;;;;;5215151;28;20611;-46
2023/01/19 03:12:38;;;;;;;21.13;10.10;;;-2.00;99.90;;;;;;5216991;28;20436;-55
2023/01/19 03:15:21;;;;;;;21.40;11.33;;;-2.30;99.90;;;;;;5225182;28;20436;-47
2023/01/19 03:17:52;;;;;;;18.70;11.00;;;-2.30;99.90;;;;;;5204985;28;20834;-46
2023/01/19 03:20:27;;;;;;;15.50;10.17;;;-2.40;99.90;;;;;;5225947;28;20451;-46
2023/01/19 03:23:01;;;;;;;21.10;11.40;;;-2.40;99.90;;;;;;5216623;28;20448;-49
2023/01/19 03:25:36;;;;;;;24.47;11.77;;;-2.20;99.90;;;;;;5232835;28;20472;-46
2023/01/19 03:28:06;;;;;;;20.40;11.17;;;-2.20;99.90;;;;;;5209379;28;20544;-46
2023/01/19 03:30:45;;;;;;;20.03;11.33;;;-2.20;99.90;;;;;;5234006;28;20483;-49
2023/01/19 03:33:37;;;;;;;20.80;12.30;;;-2.40;99.90;;;;;;5213289;28;20596;-46
2023/01/19 03:36:17;;;;;;;18.73;10.53;;;-2.30;99.90;;;;;;5220117;28;20441;-47
2023/01/19 03:38:49;;;;;;;19.20;11.83;;;-2.20;99.90;;;;;;5223994;28;20903;-48
2023/01/19 03:41:22;;;;;;;28.70;12.30;;;-2.30;99.90;;;;;;5226411;28;20429;-48
2023/01/19 03:43:55;;;;;;;25.80;11.40;;;-2.40;99.90;;;;;;5224595;28;20438;-46
2023/01/19 03:46:27;;;;;;;20.53;11.87;;;-2.10;99.90;;;;;;5225932;28;20470;-47
2023/01/19 03:48:58;;;;;;;14.10;11.07;;;-2.00;99.90;;;;;;5232973;28;20460;-48
2023/01/19 03:51:30;;;;;;;19.07;11.70;;;-2.20;99.90;;;;;;5220650;28;20969;-47
2023/01/19 03:54:00;;;;;;;26.47;12.03;;;-2.30;99.90;;;;;;5220595;28;20430;-46
2023/01/19 03:56:31;;;;;;;24.43;13.23;;;-2.40;99.90;;;;;;5217949;28;20441;-47
2023/01/19 03:59:04;;;;;;;22.90;14.10;;;-2.30;99.90;;;;;;5220591;28;20199;-47
2023/01/19 04:01:35;;;;;;;31.77;13.97;;;-2.50;99.90;;;;;;5217769;28;20736;-47
2023/01/19 04:04:06;;;;;;;28.63;14.67;;;-2.50;99.90;;;;;;5223348;28;20443;-46
2023/01/19 04:06:36;;;;;;;23.03;12.63;;;-2.60;99.90;;;;;;5221467;28;20546;-45
2023/01/19 04:09:07;;;;;;;21.57;13.50;;;-2.70;99.90;;;;;;5214140;28;20618;-47
2023/01/19 04:11:38;;;;;;;26.00;13.37;;;-2.60;99.90;;;;;;5224974;28;20446;-47
2023/01/19 04:14:08;;;;;;;21.87;13.20;;;-2.70;99.90;;;;;;5224408;28;20191;-47
2023/01/19 04:16:39;;;;;;;24.60;12.73;;;-2.50;99.90;;;;;;5225613;28;20629;-46
2023/01/19 04:19:10;;;;;;;29.03;13.27;;;-2.50;99.90;;;;;;5223815;28;20614;-47
2023/01/19 04:21:41;;;;;;;25.90;12.97;;;-2.70;99.90;;;;;;5222999;28;20635;-47
2023/01/19 04:24:11;;;;;;;24.80;13.87;;;-2.80;99.90;;;;;;5223961;28;20438;-50
2023/01/19 04:26:42;;;;;;;24.70;13.80;;;-2.70;99.90;;;;;;5217842;28;20191;-46
2023/01/19 04:29:13;;;;;;;21.27;13.23;;;-2.70;99.90;;;;;;5229187;28;20225;-48
2023/01/19 04:31:44;;;;;;;20.43;12.90;;;-2.70;99.90;;;;;;5218455;28;20441;-47
2023/01/19 04:34:15;;;;;;;25.67;14.27;;;-2.80;99.90;;;;;;5224985;28;20179;-47
2023/01/19 04:36:45;;;;;;;30.03;14.80;;;-2.80;99.90;;;;;;5223392;28;20179;-46
2023/01/19 04:39:16;;;;;;;28.13;13.30;;;-2.90;99.90;;;;;;5230174;28;20268;-46
2023/01/19 04:41:47;;;;;;;21.30;13.47;;;-3.00;99.90;;;;;;5222210;28;20185;-49
2023/01/19 04:44:17;;;;;;;23.77;12.47;;;-3.00;99.90;;;;;;5229189;28;20187;-47
2023/01/19 04:46:50;;;;;;;29.87;15.43;;;-3.00;99.90;;;;;;5227825;28;20205;-51
2023/01/19 04:49:21;;;;;;;21.40;13.80;;;-2.80;99.90;;;;;;5239497;28;20665;-46
2023/01/19 04:51:52;;;;;;;25.33;13.53;;;-3.00;99.90;;;;;;5227313;28;20441;-47
2023/01/19 04:54:23;;;;;;;27.17;14.47;;;-2.90;99.90;;;;;;5224296;28;20261;-47
2023/01/19 04:56:54;;;;;;;26.30;13.87;;;-3.00;99.90;;;;;;5232041;28;20469;-46
2023/01/19 04:59:24;;;;;;;24.77;13.50;;;-2.80;99.90;;;;;;5218991;28;20201;-50
2023/01/19 05:01:55;;;;;;;21.23;12.87;;;-2.80;99.90;;;;;;5227696;28;20648;-49
2023/01/19 05:04:26;;;;;;;31.33;14.37;;;-2.70;99.90;;;;;;5223880;28;20565;-47
2023/01/19 05:06:57;;;;;;;28.33;14.30;;;-2.70;99.90;;;;;;5222283;28;20187;-47
2023/01/19 05:09:27;;;;;;;20.63;11.93;;;-2.70;99.90;;;;;;5220685;28;20231;-47
2023/01/19 05:11:58;;;;;;;22.60;13.07;;;-2.60;99.90;;;;;;5222854;28;20468;-48
2023/01/19 05:14:28;;;;;;;25.73;13.37;;;-2.70;99.90;;;;;;5228459;28;20204;-46
2023/01/19 05:17:01;;;;;;;24.87;13.93;;;-2.70;99.90;;;;;;5221238;28;20196;-48
2023/01/19 05:19:32;;;;;;;20.67;11.50;;;-2.80;99.90;;;;;;5227890;28;20683;-46
2023/01/19 05:22:04;;;;;;;22.20;13.30;;;-2.80;99.90;;;;;;5221157;28;20547;-46
2023/01/19 05:24:35;;;;;;;18.97;11.80;;;-2.80;99.90;;;;;;5224480;28;20653;-47
2023/01/19 05:27:06;;;;;;;29.07;13.63;;;-2.90;99.90;;;;;;5218349;28;20454;-46
2023/01/19 05:29:36;;;;;;;21.50;13.47;;;-2.90;99.90;;;;;;5227246;28;20218;-46
2023/01/19 05:32:07;;;;;;;21.00;13.53;;;-2.80;99.90;;;;;;5219227;28;20210;-47
2023/01/19 05:34:37;;;;;;;29.17;13.53;;;-2.80;99.90;;;;;;5215401;28;20190;-46
2023/01/19 05:37:08;;;;;;;24.03;13.57;;;-2.90;99.90;;;;;;5221990;28;20280;-47
2023/01/19 05:39:39;;;;;;;24.97;12.73;;;-2.90;99.90;;;;;;5214281;28;20563;-47
2023/01/19 05:42:09;;;;;;;27.47;13.23;;;-2.80;99.90;;;;;;5221417;28;20740;-46
2023/01/19 05:44:40;;;;;;;24.90;14.20;;;-2.80;99.90;;;;;;5223650;28;20189;-46
2023/01/19 05:47:11;;;;;;;21.33;11.83;;;-2.80;99.90;;;;;;5224458;28;20274;-46
2023/01/19 05:49:41;;;;;;;32.67;12.17;;;-2.80;99.90;;;;;;5214502;28;20233;-46
2023/01/19 05:52:12;;;;;;;18.87;12.80;;;-2.80;99.90;;;;;;5221835;28;20186;-45
2023/01/19 05:54:42;;;;;;;20.93;12.30;;;-3.00;99.90;;;;;;5208205;28;20175;-48
2023/01/19 05:57:13;;;;;;;22.87;13.00;;;-3.10;99.90;;;;;;5225262;28;20190;-45
2023/01/19 05:59:44;;;;;;;22.83;13.00;;;-3.10;99.90;;;;;;5219261;28;20203;-46
2023/01/19 06:02:14;;;;;;;25.37;13.03;;;-3.00;99.90;;;;;;5218747;28;20243;-47
2023/01/19 06:04:45;;;;;;;23.33;12.40;;;-2.90;99.90;;;;;;5215024;28;20243;-49
2023/01/19 06:07:16;;;;;;;23.20;13.60;;;-2.90;99.90;;;;;;5215660;28;20188;-46
2023/01/19 06:09:46;;;;;;;20.07;12.43;;;-2.80;99.90;;;;;;5220171;28;20573;-45
2023/01/19 06:12:17;;;;;;;19.43;12.43;;;-2.90;99.90;;;;;;5221295;28;20194;-47
2023/01/19 06:14:48;;;;;;;22.33;12.37;;;-2.90;99.90;;;;;;5214278;28;20191;-47
2023/01/19 06:17:19;;;;;;;26.63;11.13;;;-2.90;99.90;;;;;;5224326;28;20206;-46
2023/01/19 06:19:49;;;;;;;21.63;12.20;;;-2.80;99.90;;;;;;5221240;28;20220;-47
2023/01/19 06:22:20;;;;;;;21.07;12.33;;;-2.90;99.90;;;;;;5203167;28;20805;-48
2023/01/19 06:24:51;;;;;;;20.33;13.07;;;-3.00;99.90;;;;;;5220335;28;20217;-47
2023/01/19 06:27:22;;;;;;;20.63;11.80;;;-2.90;99.90;;;;;;5214372;28;20191;-49
2023/01/19 06:29:52;;;;;;;21.97;12.50;;;-3.00;99.90;;;;;;5220859;28;21004;-46
2023/01/19 06:32:23;;;;;;;21.67;13.40;;;-2.90;99.90;;;;;;5220897;28;20174;-49
2023/01/19 06:34:54;;;;;;;25.90;11.97;;;-3.10;99.90;;;;;;5224358;28;20185;-48
2023/01/19 06:37:26;;;;;;;25.43;13.00;;;-3.00;99.90;;;;;;5221010;28;20240;-47
2023/01/19 06:39:56;;;;;;;18.47;11.87;;;-3.00;99.90;;;;;;5225509;28;20210;-46
2023/01/19 06:42:29;;;;;;;24.13;12.40;;;-3.20;99.90;;;;;;5224371;28;20471;-49
2023/01/19 06:44:59;;;;;;;20.17;12.47;;;-3.30;99.90;;;;;;5229705;28;20914;-48
2023/01/19 06:47:32;;;;;;;19.77;12.33;;;-3.10;99.90;;;;;;5228543;28;20190;-47
2023/01/19 06:50:03;;;;;;;25.03;12.33;;;-3.00;99.90;;;;;;5230096;28;20211;-48
2023/01/19 06:52:40;;;;;;;22.10;11.63;;;-3.20;99.90;;;;;;5226076;28;20464;-48
2023/01/19 06:55:12;;;;;;;17.57;11.53;;;-3.20;99.90;;;;;;5224111;28;20186;-48
2023/01/19 06:57:43;;;;;;;22.27;13.07;;;-3.20;99.90;;;;;;5223954;28;20430;-48
2023/01/19 07:00:14;;;;;;;24.60;11.50;;;-2.90;99.90;;;;;;5220243;28;20476;-48
2023/01/19 07:02:45;;;;;;;19.43;11.67;;;-2.90;99.90;;;;;;5235470;28;20198;-49
2023/01/19 07:05:15;;;;;;;26.77;11.20;;;-2.90;99.90;;;;;;5219510;28;20843;-49
2023/01/19 07:07:51;;;;;;;20.00;11.13;;;-2.90;99.90;;;;;;5221325;28;20241;-48
2023/01/19 07:10:22;;;;;;;19.03;11.60;;;-2.90;99.90;;;;;;5221743;28;20209;-49
2023/01/19 07:12:56;;;;;;;16.80;11.00;;;-2.80;99.90;;;;;;5215982;28;20449;-49
2023/01/19 07:15:26;;;;;;;17.50;9.90;;;-2.90;99.90;;;;;;5216057;28;20921;-50
2023/01/19 07:17:58;;;;;;;20.40;11.73;;;-2.80;99.90;;;;;;5217684;28;20436;-50
2023/01/19 07:20:29;;;;;;;21.50;12.10;;;-2.90;99.90;;;;;;5218340;28;20187;-48
2023/01/19 07:23:00;;;;;;;24.53;12.70;;;-3.00;99.90;;;;;;5213896;28;21025;-49
2023/01/19 07:25:31;;;;;;;25.80;12.83;;;-3.00;99.90;;;;;;5218001;28;20210;-49
2023/01/19 07:28:03;;;;;;;25.87;12.37;;;-2.90;99.90;;;;;;5217711;28;20482;-49
2023/01/19 07:30:33;;;;;;;21.87;12.70;;;-2.90;99.90;;;;;;5206510;28;20282;-49
2023/01/19 07:33:04;;;;;;;22.57;12.10;;;-2.80;99.90;;;;;;5204580;28;20438;-49
2023/01/19 07:35:35;;;;;;;20.13;12.03;;;-3.00;99.90;;;;;;5218782;28;20186;-48
2023/01/19 07:38:05;;;;;;;19.43;12.33;;;-3.00;99.90;;;;;;5219379;28;20196;-47
2023/01/19 07:40:36;;;;;;;22.20;12.17;;;-3.00;99.90;;;;;;5219104;28;20198;-47
2023/01/19 07:43:07;;;;;;;21.10;12.90;;;-2.90;99.90;;;;;;5221708;28;20187;-48
2023/01/19 07:45:38;;;;;;;18.50;11.47;;;-3.00;99.90;;;;;;5220219;28;20295;-49
2023/01/19 07:48:08;;;;;;;22.50;13.53;;;-3.00;99.90;;;;;;5221570;28;20205;-49
2023/01/19 07:50:39;;;;;;;24.83;12.13;;;-2.90;99.90;;;;;;5218136;28;20539;-49
2023/01/19 07:53:10;;;;;;;16.27;10.70;;;-2.90;99.90;;;;;;5219733;28;20210;-48
2023/01/19 07:55:41;;;;;;;22.57;12.10;;;-2.90;99.90;;;;;;5216185;28;20640;-49
2023/01/19 07:58:12;;;;;;;25.83;13.23;;;-2.80;99.90;;;;;;5221005;28;20561;-50
2023/01/19 08:00:42;;;;;;;20.67;11.67;;;-2.90;99.90;;;;;;5203545;28;20532;-49
2023/01/19 08:03:13;;;;;;;19.10;11.00;;;-2.70;99.90;;;;;;5226095;28;20182;-50
2023/01/19 08:05:48;;;;;;;17.47;10.93;;;-2.50;99.90;;;;;;5221659;28;20183;-51
2023/01/19 08:08:19;;;;;;;27.60;12.70;;;-2.50;99.90;;;;;;5214362;28;20252;-49
2023/01/19 08:10:50;;;;;;;20.37;11.10;;;-2.40;99.90;;;;;;5217070;28;20499;-49
2023/01/19 08:13:21;;;;;;;23.37;11.77;;;-2.40;99.90;;;;;;5213606;28;20183;-50
2023/01/19 08:15:52;;;;;;;25.57;12.03;;;-2.20;99.90;;;;;;5221846;28;20441;-49
2023/01/19 08:18:23;;;;;;;15.50;10.60;;;-2.20;99.90;;;;;;5217591;28;20190;-49
2023/01/19 08:20:54;;;;;;;16.63;11.00;;;-2.30;99.90;;;;;;5222982;28;21004;-50
2023/01/19 08:23:24;;;;;;;19.23;11.23;;;-2.20;99.90;;;;;;5221116;28;20533;-49
2023/01/19 08:25:55;;;;;;;27.83;10.30;;;-2.20;99.90;;;;;;5203183;28;20210;-49
2023/01/19 08:28:26;;;;;;;19.03;10.57;;;-2.00;99.90;;;;;;5220128;28;20256;-49
2023/01/19 08:30:58;;;;;;;22.27;11.07;;;-1.90;99.90;;;;;;5219537;28;20471;-50
2023/01/19 08:33:28;;;;;;;15.67;10.63;;;-1.90;99.90;;;;;;5213616;28;20190;-48
2023/01/19 08:35:59;;;;;;;50.37;12.43;;;-2.00;99.90;;;;;;5222911;28;20506;-47
2023/01/19 08:38:29;;;;;;;16.20;9.83;;;-2.00;99.90;;;;;;5218949;28;20200;-50
2023/01/19 08:41:00;;;;;;;13.60;10.30;;;-1.90;99.90;;;;;;5220523;28;20670;-48
2023/01/19 08:43:31;;;;;;;21.10;12.00;;;-2.00;99.90;;;;;;5217882;28;20213;-48
2023/01/19 08:46:02;;;;;;;21.50;11.00;;;-1.70;99.90;;;;;;5215898;28;20273;-49
2023/01/19 08:48:33;;;;;;;17.73;10.33;;;-1.80;99.90;;;;;;5219387;28;20288;-50
2023/01/19 08:51:04;;;;;;;12.10;9.57;;;-1.70;99.90;;;;;;5215967;28;20552;-48
2023/01/19 08:53:34;;;;;;;21.40;12.47;;;-1.80;99.90;;;;;;5214228;28;20309;-49
2023/01/19 08:56:10;;;;;;;15.80;10.50;;;-1.60;99.90;;;;;;5210676;28;20179;-49
2023/01/19 08:58:43;;;;;;;18.93;10.47;;;-1.60;99.90;;;;;;5217404;28;20198;-49
2023/01/19 09:01:15;;;;;;;22.30;12.20;;;-1.50;99.90;;;;;;5215238;28;20429;-50
2023/01/19 09:03:46;;;;;;;19.73;9.30;;;-1.50;99.90;;;;;;5217592;28;20437;-49
2023/01/19 09:06:18;;;;;;;20.87;9.00;;;-1.50;99.90;;;;;;5221498;28;20977;-48
2023/01/19 09:08:48;;;;;;;20.20;10.27;;;-1.40;99.90;;;;;;5218732;28;20961;-47
2023/01/19 09:11:19;;;;;;;16.30;9.90;;;-1.20;99.90;;;;;;5218154;28;20473;-48
2023/01/19 09:13:50;;;;;;;20.10;10.03;;;-1.10;99.90;;;;;;5221118;28;20187;-49
2023/01/19 09:16:20;;;;;;;27.10;10.10;;;-1.10;99.90;;;;;;5218535;28;20181;-48
2023/01/19 09:18:51;;;;;;;20.67;9.13;;;-1.10;99.90;;;;;;5218499;28;20802;-50
2023/01/19 09:21:22;;;;;;;20.37;11.33;;;-1.20;99.90;;;;;;5213803;28;20195;-49
2023/01/19 09:23:53;;;;;;;28.00;12.77;;;-1.10;99.90;;;;;;5220118;28;20445;-49
2023/01/19 09:26:24;;;;;;;31.37;12.67;;;-1.00;99.90;;;;;;5223430;28;20240;-49
2023/01/19 09:28:54;;;;;;;28.50;11.90;;;-1.00;99.90;;;;;;5221041;28;20899;-49
2023/01/19 09:31:25;;;;;;;28.93;10.07;;;-1.00;99.90;;;;;;5221838;28;20582;-49
2023/01/19 09:33:56;;;;;;;33.57;13.33;;;-0.80;99.90;;;;;;5222264;28;20185;-49
2023/01/19 09:36:26;;;;;;;22.10;11.60;;;-0.90;99.90;;;;;;5216913;28;20644;-49
2023/01/19 09:38:57;;;;;;;20.23;10.47;;;-0.70;99.90;;;;;;5222048;28;20257;-49
2023/01/19 09:41:28;;;;;;;18.03;9.50;;;-0.70;99.90;;;;;;5215128;28;20663;-49
2023/01/19 09:43:59;;;;;;;25.40;11.83;;;-0.70;99.90;;;;;;5211892;28;20266;-50
2023/01/19 09:46:38;;;;;;;16.70;9.40;;;-0.60;99.90;;;;;;5211031;28;20478;-49
2023/01/19 09:49:15;;;;;;;16.30;8.80;;;-0.60;99.90;;;;;;5212621;28;20986;-49
2023/01/19 09:51:49;;;;;;;13.63;7.40;;;-0.70;99.90;;;;;;5220795;28;20401;-50
2023/01/19 09:54:45;;;;;;;13.40;7.07;;;-0.40;99.90;;;;;;5216950;28;20461;-49
2023/01/19 09:57:16;;;;;;;22.23;9.50;;;-0.30;99.90;;;;;;5210964;28;20438;-50
2023/01/19 09:59:49;;;;;;;18.77;8.13;;;-0.30;99.90;;;;;;5215074;28;20468;-50
2023/01/19 10:02:38;;;;;;;15.67;9.20;;;-0.10;99.90;;;;;;5219454;28;20184;-49
2023/01/19 10:05:30;;;;;;;19.10;8.53;;;-0.20;99.90;;;;;;5215339;28;20791;-49
2023/01/19 10:08:39;;;;;;;13.77;7.90;;;-0.20;99.90;;;;;;5221568;28;20514;-49
2023/01/19 10:11:26;;;;;;;13.13;8.27;;;-0.10;99.90;;;;;;5217101;28;20462;-50
2023/01/19 10:13:58;;;;;;;13.50;6.90;;;-0.10;99.90;;;;;;5220092;28;20442;-49
2023/01/19 10:16:49;;;;;;;14.70;7.60;;;0.00;99.90;;;;;;5223127;28;20443;-51
2023/01/19 10:19:29;;;;;;;16.00;7.57;;;0.10;99.90;;;;;;5218727;28;20448;-50
2023/01/19 10:22:24;;;;;;;13.30;7.60;;;0.30;99.90;;;;;;5222302;28;20529;-50
2023/01/19 10:24:59;;;;;;;12.40;7.47;;;0.40;99.90;;;;;;5218414;28;20439;-50
2023/01/19 10:27:32;;;;;;;8.90;6.70;;;0.30;99.90;;;;;;5218552;28;20503;-48
2023/01/19 10:30:07;;;;;;;8.73;6.63;;;0.20;99.90;;;;;;5212463;28;20481;-50
2023/01/19 10:32:38;;;;;;;13.07;6.90;;;0.30;99.90;;;;;;5221249;28;20482;-50
2023/01/19 10:35:25;;;;;;;7.73;6.60;;;0.40;99.90;;;;;;5223671;28;20435;-49
2023/01/19 10:38:00;;;;;;;10.57;6.80;;;0.40;99.90;;;;;;5216869;28;20650;-50
2023/01/19 10:40:43;;;;;;;13.07;6.70;;;0.30;99.90;;;;;;5217464;28;20437;-50
2023/01/19 10:43:36;;;;;;;12.73;7.00;;;0.40;99.90;;;;;;5221364;28;20791;-50
2023/01/19 10:46:31;;;;;;;9.60;6.43;;;0.50;99.90;;;;;;5220437;28;20440;-51
2023/01/19 10:49:02;;;;;;;11.63;6.03;;;0.80;99.90;;;;;;5217730;28;20463;-49
2023/01/19 10:51:45;;;;;;;11.73;7.37;;;0.80;99.90;;;;;;5219492;28;20468;-48
2023/01/19 10:54:16;;;;;;;6.30;5.67;;;0.70;99.90;;;;;;5218564;28;20430;-48
2023/01/19 10:56:58;;;;;;;9.93;7.33;;;0.60;99.90;;;;;;5216457;28;20451;-50
2023/01/19 10:59:32;;;;;;;12.80;6.40;;;0.70;99.90;;;;;;5222126;28;20699;-49
2023/01/19 11:02:17;;;;;;;10.73;7.03;;;0.70;99.90;;;;;;5221439;28;20499;-49
2023/01/19 11:04:51;;;;;;;7.63;6.57;;;0.80;99.90;;;;;;5213708;28;20926;-49
2023/01/19 11:07:25;;;;;;;14.43;6.40;;;0.90;99.90;;;;;;5220056;28;20433;-49
2023/01/19 11:10:14;;;;;;;9.43;7.00;;;1.10;99.90;;;;;;5220454;28;20476;-50
2023/01/19 11:12:54;;;;;;;10.87;6.70;;;1.10;99.90;;;;;;5219896;28;20513;-49
2023/01/19 11:15:34;;;;;;;8.70;6.27;;;1.10;99.90;;;;;;5217903;28;20429;-49
2023/01/19 11:18:06;;;;;;;11.57;6.90;;;1.20;99.90;;;;;;5218549;28;20530;-50
2023/01/19 11:20:49;;;;;;;9.03;7.10;;;1.30;99.90;;;;;;5204824;28;20433;-50
2023/01/19 11:23:33;;;;;;;13.70;6.40;;;1.40;99.90;;;;;;5217973;28;20563;-50
2023/01/19 11:26:05;;;;;;;14.90;7.47;;;1.40;99.90;;;;;;5221878;28;20425;-49
2023/01/19 11:28:39;;;;;;;10.17;7.10;;;1.50;99.90;;;;;;5221098;28;20771;-50
2023/01/19 11:31:09;;;;;;;10.63;6.23;;;1.40;99.90;;;;;;5219923;28;20481;-50
2023/01/19 11:33:49;;;;;;;22.07;9.20;;;1.60;99.90;;;;;;5225553;28;20432;-49
2023/01/19 11:36:27;;;;;;;14.20;7.00;;;1.70;99.90;;;;;;5218717;28;20265;-50
2023/01/19 11:39:20;;;;;;;15.43;7.57;;;1.90;99.90;;;;;;5220203;28;20456;-51
2023/01/19 11:41:53;;;;;;;12.60;7.87;;;1.70;99.90;;;;;;5219347;28;20469;-49
2023/01/19 11:44:35;;;;;;;23.27;9.37;;;2.00;99.90;;;;;;5237436;28;20461;-50
2023/01/19 11:47:17;;;;;;;17.33;8.93;;;2.20;99.90;;;;;;5217326;28;20516;-50
2023/01/19 11:50:09;;;;;;;14.50;8.27;;;2.10;99.90;;;;;;5219644;28;20457;-49
2023/01/19 11:52:48;;;;;;;11.37;7.40;;;2.00;99.90;;;;;;5216804;28;20472;-50
2023/01/19 11:55:32;;;;;;;14.87;7.43;;;2.10;99.90;;;;;;5219925;28;20425;-49
2023/01/19 11:58:04;;;;;;;12.27;7.40;;;2.00;99.90;;;;;;5221098;28;20437;-50
2023/01/19 12:00:54;;;;;;;13.63;7.20;;;2.00;99.90;;;;;;5216976;28;20438;-50
2023/01/19 12:03:29;;;;;;;12.20;6.73;;;1.90;99.90;;;;;;5216479;28;20442;-49
2023/01/19 12:06:05;;;;;;;15.70;7.77;;;2.20;99.90;;;;;;5217005;28;20930;-50
2023/01/19 12:08:41;;;;;;;12.10;7.50;;;2.20;99.90;;;;;;5218956;28;20448;-50
2023/01/19 12:11:17;;;;;;;11.90;7.60;;;2.10;99.90;;;;;;5219885;28;20460;-50
2023/01/19 12:13:50;;;;;;;12.43;7.33;;;1.90;99.90;;;;;;5218546;28;22185;-49
2023/01/19 12:16:31;;;;;;;16.20;9.10;;;1.90;99.90;;;;;;5213826;28;20493;-49
2023/01/19 12:19:25;;;;;;;21.50;10.30;;;2.10;99.90;;;;;;5212742;28;20457;-50
2023/01/19 12:21:56;;;;;;;9.50;6.90;;;2.30;99.90;;;;;;5218681;28;20464;-49
2023/01/19 12:24:35;;;;;;;27.87;11.13;;;2.30;99.90;;;;;;5214348;28;20437;-50
2023/01/19 12:27:21;;;;;;;15.53;9.50;;;2.10;99.90;;;;;;5214233;28;20189;-50
2023/01/19 12:29:53;;;;;;;30.00;13.87;;;2.10;99.90;;;;;;5218421;28;20520;-50
2023/01/19 12:32:35;;;;;;;16.10;8.90;;;2.00;99.90;;;;;;5219339;28;20445;-51
2023/01/19 12:35:44;;;;;;;10.83;9.63;;;1.90;99.90;;;;;;5214954;28;20868;-50
2023/01/19 12:38:44;;;;;;;15.60;9.50;;;2.00;99.90;;;;;;5217855;28;20461;-49
2023/01/19 12:41:26;;;;;;;11.73;8.27;;;2.20;99.90;;;;;;5205182;28;20438;-49
2023/01/19 12:44:15;;;;;;;13.43;7.07;;;2.00;99.90;;;;;;5215430;28;20444;-49
2023/01/19 12:46:50;;;;;;;16.97;10.93;;;1.90;99.90;;;;;;5216898;28;20503;-49
2023/01/19 12:49:36;;;;;;;16.40;11.00;;;2.10;99.90;;;;;;5220673;28;20824;-49
2023/01/19 12:52:22;;;;;;;16.77;9.30;;;2.00;99.90;;;;;;5219293;28;20790;-50
2023/01/19 12:54:59;;;;;;;17.93;8.73;;;1.80;99.90;;;;;;5216322;28;20431;-50
2023/01/19 12:57:54;;;;;;;17.40;9.83;;;2.00;99.90;;;;;;5219402;28;20445;-49
2023/01/19 13:00:30;;;;;;;10.53;8.60;;;2.10;99.90;;;;;;5217357;28;20813;-50
2023/01/19 13:03:22;;;;;;;18.77;8.73;;;2.00;99.90;;;;;;5221095;28;20460;-50
2023/01/19 13:05:54;;;;;;;13.93;8.27;;;1.80;99.90;;;;;;5218782;28;20442;-51
2023/01/19 13:08:55;;;;;;;11.60;8.10;;;1.90;99.90;;;;;;5217194;28;20465;-50
2023/01/19 13:11:26;;;;;;;13.63;9.00;;;2.00;99.90;;;;;;5215594;28;20480;-50
2023/01/19 13:13:59;;;;;;;16.33;9.40;;;2.00;99.90;;;;;;5215389;28;20533;-50
2023/01/19 13:16:30;;;;;;;15.00;9.60;;;1.90;99.90;;;;;;5217616;28;20194;-50
2023/01/19 13:19:15;;;;;;;9.80;8.77;;;2.00;99.90;;;;;;5217727;28;20450;-50
2023/01/19 13:21:47;;;;;;;20.43;9.20;;;2.20;99.90;;;;;;5227903;28;20179;-50
2023/01/19 13:24:22;;;;;;;19.73;9.83;;;2.10;99.90;;;;;;5220230;28;20824;-49
2023/01/19 13:26:57;;;;;;;20.60;9.03;;;1.90;99.90;;;;;;5220215;28;20432;-50
2023/01/19 13:29:30;;;;;;;16.60;8.17;;;2.00;99.90;;;;;;5216990;28;20465;-49